createdAt,value
2023-01-19T00:00:10.941Z,99629.78
2023-01-19T00:02:38.807Z,99628.00
2023-01-19T00:05:07.095Z,99628.16
2023-01-19T00:07:35.081Z,99627.41
2023-01-19T00:10:02.893Z,99607.16
2023-01-19T00:12:30.653Z,99633.16
2023-01-19T00:14:59.887Z,99628.22
2023-01-19T00:17:27.895Z,99624.00
2023-01-19T00:19:55.605Z,99630.78
2023-01-19T00:22:23.622Z,99637.31
2023-01-19T00:24:51.557Z,99643.94
2023-01-19T00:27:19.275Z,99620.59
2023-01-19T00:29:47.998Z,99638.25
2023-01-19T00:32:18.178Z,99641.69
2023-01-19T00:34:49.679Z,99631.66
2023-01-19T00:37:18.288Z,99635.84
2023-01-19T00:39:46.012Z,99624.06
2023-01-19T00:42:31.435Z,99623.25
2023-01-19T00:44:59.415Z,99634.28
2023-01-19T00:47:28.540Z,99633.47
2023-01-19T00:49:56.370Z,99633.34
2023-01-19T00:52:24.211Z,99627.34
2023-01-19T00:54:51.920Z,99631.09
2023-01-19T00:57:20.347Z,99622.59
2023-01-19T00:59:48.103Z,99611.00
2023-01-19T01:02:16.299Z,99636.31
2023-01-19T01:04:45.719Z,99643.91
2023-01-19T01:07:13.490Z,99636.50
2023-01-19T01:09:41.248Z,99642.28
2023-01-19T01:12:09.392Z,99643.97
2023-01-19T01:14:37.213Z,99644.94
2023-01-19T01:17:04.998Z,99639.88
2023-01-19T01:19:33.254Z,99645.84
2023-01-19T01:22:03.061Z,99650.88
2023-01-19T01:24:30.998Z,99647.50
2023-01-19T01:26:58.889Z,99655.97
2023-01-19T01:29:26.661Z,99655.16
2023-01-19T01:31:54.569Z,99657.63
2023-01-19T01:34:22.731Z,99640.00
2023-01-19T01:36:50.497Z,99666.13
2023-01-19T01:39:19.637Z,99667.03
2023-01-19T01:41:47.685Z,99647.47
2023-01-19T01:44:49.814Z,99664.00
2023-01-19T01:47:23.600Z,99663.78
2023-01-19T01:49:55.062Z,99638.78
2023-01-19T01:52:26.172Z,99638.75
2023-01-19T01:54:55.906Z,99636.31
2023-01-19T01:57:27.829Z,99655.56
2023-01-19T01:59:58.495Z,99647.19
2023-01-19T02:02:48.271Z,99641.94
2023-01-19T02:05:20.657Z,99639.41
2023-01-19T02:08:12.855Z,99646.94
2023-01-19T02:11:00.206Z,99644.34
2023-01-19T02:13:30.288Z,99648.44
2023-01-19T02:16:00.906Z,99630.28
2023-01-19T02:18:30.618Z,99649.41
2023-01-19T02:21:09.465Z,99647.13
2023-01-19T02:23:44.893Z,99648.34
2023-01-19T02:26:16.142Z,99645.31
2023-01-19T02:28:48.426Z,99649.44
2023-01-19T02:31:16.213Z,99645.22
2023-01-19T02:33:44.652Z,99640.66
2023-01-19T02:36:15.835Z,99646.31
2023-01-19T02:38:46.992Z,99641.50
2023-01-19T02:41:19.906Z,99644.66
2023-01-19T02:43:50.734Z,99654.59
2023-01-19T02:46:18.660Z,99654.50
2023-01-19T02:48:46.610Z,99654.69
2023-01-19T02:51:18.680Z,99659.03
2023-01-19T02:54:28.267Z,99659.75
2023-01-19T02:57:11.713Z,99656.53
2023-01-19T02:59:55.936Z,99655.56
2023-01-19T03:02:39.943Z,99660.44
2023-01-19T03:05:18.903Z,99653.31
2023-01-19T03:07:54.630Z,99666.06
2023-01-19T03:10:33.266Z,99640.22
2023-01-19T03:13:11.488Z,99676.44
2023-01-19T03:15:47.638Z,99654.69
2023-01-19T03:18:19.838Z,99674.53
2023-01-19T03:20:50.475Z,99669.75
2023-01-19T03:23:20.805Z,99649.72
2023-01-19T03:25:51.387Z,99673.41
2023-01-19T03:28:24.025Z,99653.09
2023-01-19T03:30:57.510Z,99667.97
2023-01-19T03:33:29.662Z,99692.22
2023-01-19T03:36:03.824Z,99675.53
2023-01-19T03:38:36.156Z,99701.44
2023-01-19T03:41:08.105Z,99701.31
2023-01-19T03:43:40.029Z,99704.00
2023-01-19T03:46:11.209Z,99704.72
2023-01-19T03:48:39.816Z,99699.69
2023-01-19T03:51:10.508Z,99669.28
2023-01-19T03:53:38.410Z,99704.63
2023-01-19T03:56:07.639Z,99696.09
2023-01-19T03:58:37.527Z,99687.72
2023-01-19T04:01:05.541Z,99676.34
2023-01-19T04:03:33.615Z,99689.78
2023-01-19T04:06:01.512Z,99703.44
2023-01-19T04:08:29.515Z,99705.03
2023-01-19T04:10:58.734Z,99681.81
2023-01-19T04:13:28.876Z,99700.25
2023-01-19T04:16:00.972Z,99713.97
2023-01-19T04:18:28.850Z,99704.84
2023-01-19T04:20:56.657Z,99704.97
2023-01-19T04:23:24.470Z,99708.31
2023-01-19T04:25:57.736Z,99707.50
2023-01-19T04:28:25.698Z,99709.88
2023-01-19T04:30:53.721Z,99718.31
2023-01-19T04:33:24.702Z,99714.56
2023-01-19T04:35:54.581Z,99725.66
2023-01-19T04:38:23.141Z,99720.66
2023-01-19T04:40:51.220Z,99720.66
2023-01-19T04:43:18.996Z,99722.53
2023-01-19T04:45:47.099Z,99715.09
2023-01-19T04:48:15.439Z,99721.75
2023-01-19T04:50:44.532Z,99723.56
2023-01-19T04:53:13.703Z,99706.00
2023-01-19T04:55:42.194Z,99722.81
2023-01-19T04:58:09.942Z,99711.13
2023-01-19T05:00:38.117Z,99727.97
2023-01-19T05:03:06.272Z,99728.09
2023-01-19T05:05:34.286Z,99728.13
2023-01-19T05:08:03.525Z,99723.88
2023-01-19T05:10:31.572Z,99705.44
2023-01-19T05:12:59.614Z,99709.69
2023-01-19T05:15:27.760Z,99734.09
2023-01-19T05:17:58.071Z,99732.53
2023-01-19T05:20:26.434Z,99733.34
2023-01-19T05:22:54.465Z,99734.09
2023-01-19T05:25:23.741Z,99738.31
2023-01-19T05:27:51.674Z,99745.13
2023-01-19T05:30:20.233Z,99741.84
2023-01-19T05:32:48.124Z,99746.88
2023-01-19T05:35:20.178Z,99721.69
2023-01-19T05:37:52.904Z,99738.44
2023-01-19T05:40:20.856Z,99742.56
2023-01-19T05:42:50.028Z,99742.38
2023-01-19T05:45:18.048Z,99744.94
2023-01-19T05:47:45.876Z,99732.41
2023-01-19T05:50:13.617Z,99748.94
2023-01-19T05:52:41.664Z,99745.34
2023-01-19T05:55:11.211Z,99749.00
2023-01-19T05:57:38.954Z,99755.19
2023-01-19T06:00:09.862Z,99753.63
2023-01-19T06:02:37.909Z,99748.41
2023-01-19T06:05:06.328Z,99755.03
2023-01-19T06:07:34.356Z,99735.16
2023-01-19T06:10:02.184Z,99757.84
2023-01-19T06:12:30.027Z,99757.75
2023-01-19T06:14:57.977Z,99764.53
2023-01-19T06:17:27.174Z,99772.75
2023-01-19T06:19:55.036Z,99775.31
2023-01-19T06:22:23.440Z,99779.75
2023-01-19T06:24:51.932Z,99786.50
2023-01-19T06:27:19.799Z,99773.84
2023-01-19T06:29:47.756Z,99786.59
2023-01-19T06:32:15.589Z,99804.22
2023-01-19T06:34:44.738Z,99800.84
2023-01-19T06:37:13.197Z,99795.88
2023-01-19T06:39:42.315Z,99790.94
2023-01-19T06:42:10.112Z,99804.50
2023-01-19T06:44:38.107Z,99812.13
2023-01-19T06:47:15.341Z,99810.25
2023-01-19T06:49:45.524Z,99816.31
2023-01-19T06:52:15.975Z,99816.09
2023-01-19T06:54:45.397Z,99826.31
2023-01-19T06:57:13.640Z,99827.84
2023-01-19T06:59:41.413Z,99819.34
2023-01-19T07:02:26.542Z,99809.38
2023-01-19T07:04:57.577Z,99833.78
2023-01-19T07:07:25.949Z,99835.34
2023-01-19T07:09:54.447Z,99840.66
2023-01-19T07:12:22.364Z,99848.09
2023-01-19T07:14:50.504Z,99848.25
2023-01-19T07:17:18.695Z,99832.22
2023-01-19T07:19:47.538Z,99850.47
2023-01-19T07:22:16.675Z,99859.53
2023-01-19T07:24:44.967Z,99860.13
2023-01-19T07:27:13.319Z,99853.50
2023-01-19T07:29:41.055Z,99870.34
2023-01-19T07:32:09.203Z,99852.72
2023-01-19T07:34:37.145Z,99881.22
2023-01-19T07:37:05.244Z,99882.78
2023-01-19T07:39:36.639Z,99893.78
2023-01-19T07:42:04.904Z,99885.97
2023-01-19T07:44:32.645Z,99859.81
2023-01-19T07:47:00.506Z,99894.09
2023-01-19T07:49:28.359Z,99889.13
2023-01-19T07:51:57.057Z,99900.84
2023-01-19T07:54:25.090Z,99904.81
2023-01-19T07:56:56.171Z,99883.91
2023-01-19T07:59:24.299Z,99879.66
2023-01-19T08:01:53.428Z,99912.00
2023-01-19T08:04:21.808Z,99897.81
2023-01-19T08:06:49.700Z,99900.31
2023-01-19T08:09:17.859Z,99900.31
2023-01-19T08:11:45.920Z,99922.22
2023-01-19T08:14:14.978Z,99927.22
2023-01-19T08:16:42.705Z,99900.47
2023-01-19T08:19:10.622Z,99930.53
2023-01-19T08:21:38.981Z,99941.69
2023-01-19T08:24:07.376Z,99936.53
2023-01-19T08:26:36.773Z,99951.03
2023-01-19T08:29:06.787Z,99931.84
2023-01-19T08:31:36.333Z,99951.75
2023-01-19T08:34:04.324Z,99956.13
2023-01-19T08:36:32.185Z,99952.53
2023-01-19T08:39:00.044Z,99956.81
2023-01-19T08:41:27.945Z,99944.78
2023-01-19T08:43:55.688Z,99957.63
2023-01-19T08:46:23.608Z,99962.56
2023-01-19T08:48:52.837Z,99971.91
2023-01-19T08:51:20.636Z,99951.47
2023-01-19T08:53:48.554Z,99938.22
2023-01-19T08:56:16.642Z,99975.31
2023-01-19T08:58:53.629Z,99956.75
2023-01-19T09:01:31.362Z,99988.84
2023-01-19T09:04:00.559Z,99995.72
2023-01-19T09:06:28.476Z,99999.19
2023-01-19T09:08:57.666Z,100001.59
2023-01-19T09:11:25.482Z,99996.31
2023-01-19T09:13:53.238Z,99972.00
2023-01-19T09:16:21.663Z,99998.09
2023-01-19T09:18:49.421Z,100001.16
2023-01-19T09:21:19.278Z,100004.00
2023-01-19T09:23:47.379Z,100008.28
2023-01-19T09:26:15.153Z,100010.00
2023-01-19T09:28:42.914Z,100008.28
2023-01-19T09:31:11.121Z,100009.81
2023-01-19T09:33:38.990Z,100022.50
2023-01-19T09:36:07.430Z,100015.75
2023-01-19T09:38:36.834Z,100008.97
2023-01-19T09:41:05.990Z,100029.38
2023-01-19T09:43:38.547Z,100019.03
2023-01-19T09:46:11.799Z,100027.16
2023-01-19T09:48:49.042Z,100033.25
2023-01-19T09:51:19.632Z,100033.22
2023-01-19T09:53:57.080Z,100039.94
2023-01-19T09:56:25.536Z,100045.94
2023-01-19T09:58:53.448Z,100046.63
2023-01-19T10:01:41.512Z,100036.78
2023-01-19T10:04:28.416Z,100045.09
2023-01-19T10:07:09.872Z,100030.59
2023-01-19T10:09:49.843Z,100060.94
2023-01-19T10:12:31.864Z,100059.91
2023-01-19T10:15:07.027Z,100042.19
2023-01-19T10:17:43.428Z,100059.38
2023-01-19T10:20:17.984Z,100064.44
2023-01-19T10:22:49.936Z,100059.19
2023-01-19T10:25:23.785Z,100063.88
2023-01-19T10:27:52.223Z,100047.06
2023-01-19T10:30:23.680Z,100047.91
2023-01-19T10:32:52.515Z,100068.34
2023-01-19T10:35:25.436Z,100066.81
2023-01-19T10:37:56.417Z,100079.47
2023-01-19T10:40:34.283Z,100077.38
2023-01-19T10:43:02.531Z,100044.59
2023-01-19T10:45:32.854Z,100078.94
2023-01-19T10:48:05.897Z,100083.03
2023-01-19T10:50:37.159Z,100084.75
2023-01-19T10:53:06.751Z,100087.97
2023-01-19T10:55:38.535Z,100094.66
2023-01-19T10:58:07.435Z,100096.53
2023-01-19T11:00:38.253Z,100095.47
2023-01-19T11:03:07.157Z,100094.47
2023-01-19T11:05:36.785Z,100102.22
2023-01-19T11:08:24.147Z,100104.75
2023-01-19T11:11:02.366Z,100093.69
2023-01-19T11:13:30.213Z,100095.09
2023-01-19T11:16:00.233Z,100104.34
2023-01-19T11:18:31.138Z,100101.94
2023-01-19T11:21:02.255Z,100099.41
2023-01-19T11:23:33.764Z,100109.63
2023-01-19T11:26:06.818Z,100108.78
2023-01-19T11:28:38.421Z,100112.94
2023-01-19T11:31:19.163Z,100112.03
2023-01-19T11:33:51.231Z,100094.56
2023-01-19T11:36:21.162Z,100115.66
2023-01-19T11:38:51.561Z,100119.22
2023-01-19T11:41:22.882Z,100127.69
2023-01-19T11:43:54.618Z,100123.91
2023-01-19T11:46:25.045Z,100128.81
2023-01-19T11:48:57.513Z,100133.75
2023-01-19T11:51:31.160Z,100138.06
2023-01-19T11:53:59.181Z,100141.53
2023-01-19T11:56:30.496Z,100125.53
2023-01-19T11:58:58.556Z,100145.16
2023-01-19T12:01:31.141Z,100152.91
2023-01-19T12:04:05.561Z,100159.84
2023-01-19T12:06:37.018Z,100136.69
2023-01-19T12:09:12.291Z,100161.59
2023-01-19T12:11:45.145Z,100141.88
2023-01-19T12:14:23.795Z,100157.25
2023-01-19T12:16:53.249Z,100149.63
2023-01-19T12:19:26.243Z,100164.25
2023-01-19T12:21:54.842Z,100140.44
2023-01-19T12:24:32.049Z,100170.63
2023-01-19T12:27:06.042Z,100165.47
2023-01-19T12:29:36.401Z,100145.16
2023-01-19T12:32:19.828Z,100177.66
2023-01-19T12:34:48.214Z,100163.22
2023-01-19T12:37:45.380Z,100177.06
2023-01-19T12:40:24.925Z,100171.31
2023-01-19T12:42:59.843Z,100175.63
2023-01-19T12:45:32.206Z,100182.09
2023-01-19T12:48:02.085Z,100169.47
2023-01-19T12:50:38.546Z,100166.41
2023-01-19T12:53:17.153Z,100171.91
2023-01-19T12:55:46.858Z,100173.03
2023-01-19T12:58:19.230Z,100198.19
2023-01-19T13:00:49.327Z,100203.06
2023-01-19T13:03:46.710Z,100201.03
2023-01-19T13:06:14.565Z,100196.81
2023-01-19T13:09:00.460Z,100206.13
2023-01-19T13:11:33.305Z,100207.94
2023-01-19T13:14:34.660Z,100211.06
2023-01-19T13:17:29.491Z,100214.94
2023-01-19T13:20:19.480Z,100213.03
2023-01-19T13:23:16.028Z,100218.53
2023-01-19T13:25:48.901Z,100224.56
2023-01-19T13:28:19.491Z,100240.56
2023-01-19T13:30:58.062Z,100244.28
2023-01-19T13:33:31.126Z,100216.41
2023-01-19T13:35:59.901Z,100232.22
2023-01-19T13:38:28.949Z,100228.75
2023-01-19T13:41:00.557Z,100255.34
2023-01-19T13:43:38.747Z,100264.94
2023-01-19T13:46:07.203Z,100260.22
2023-01-19T13:48:36.689Z,100269.56
2023-01-19T13:51:06.150Z,100265.06
2023-01-19T13:53:34.471Z,100253.94
2023-01-19T13:56:20.745Z,100273.53
2023-01-19T13:59:00.252Z,100236.66
2023-01-19T14:01:29.809Z,100272.03
2023-01-19T14:03:59.962Z,100272.91
2023-01-19T14:06:37.961Z,100244.25
2023-01-19T14:09:16.590Z,100282.97
2023-01-19T14:11:45.731Z,100277.97
2023-01-19T14:14:24.430Z,100288.06
2023-01-19T14:16:52.365Z,100262.91
2023-01-19T14:19:21.703Z,100290.28
2023-01-19T14:22:00.562Z,100269.25
2023-01-19T14:24:32.051Z,100286.09
2023-01-19T14:27:20.465Z,100301.44
2023-01-19T14:29:50.719Z,100294.59
2023-01-19T14:32:20.707Z,100287.81
2023-01-19T14:34:51.929Z,100301.41
2023-01-19T14:38:07.353Z,100310.72
2023-01-19T14:40:39.300Z,100292.84
2023-01-19T14:43:07.296Z,100320.63
2023-01-19T14:45:37.714Z,100307.84
2023-01-19T14:48:16.310Z,100298.00
2023-01-19T14:51:02.071Z,100326.78
2023-01-19T14:53:37.231Z,100339.53
2023-01-19T14:56:07.272Z,100327.66
2023-01-19T14:58:36.491Z,100339.50
2023-01-19T15:01:06.581Z,100313.44
2023-01-19T15:03:44.157Z,100336.13
2023-01-19T15:06:17.378Z,100340.53
2023-01-19T15:08:46.476Z,100347.31
2023-01-19T15:11:23.137Z,100349.88
2023-01-19T15:13:51.830Z,100353.25
2023-01-19T15:16:20.067Z,100327.03
2023-01-19T15:18:47.980Z,100351.44
2023-01-19T15:21:20.485Z,100354.78
2023-01-19T15:23:48.568Z,100348.94
2023-01-19T15:26:18.542Z,100352.34
2023-01-19T15:28:47.041Z,100347.38
2023-01-19T15:31:16.931Z,100328.78
2023-01-19T15:33:45.568Z,100335.56
2023-01-19T15:36:16.936Z,100360.91
2023-01-19T15:38:47.749Z,100329.69
2023-01-19T15:41:16.502Z,100357.53
2023-01-19T15:43:44.277Z,100362.63
2023-01-19T15:46:15.622Z,100360.06
2023-01-19T15:48:43.473Z,100370.19
2023-01-19T15:51:13.640Z,100365.97
2023-01-19T15:53:41.482Z,100354.13
2023-01-19T15:56:16.287Z,100377.78
2023-01-19T15:58:44.807Z,100384.56
2023-01-19T16:01:14.124Z,100381.16
2023-01-19T16:03:42.277Z,100364.28
2023-01-19T16:06:11.261Z,100381.16
2023-01-19T16:08:39.408Z,100377.81
2023-01-19T16:11:08.054Z,100356.69
2023-01-19T16:13:37.330Z,100376.06
2023-01-19T16:16:05.765Z,100376.06
2023-01-19T16:18:33.741Z,100396.31
2023-01-19T16:21:01.983Z,100394.56
2023-01-19T16:23:29.837Z,100399.63
2023-01-19T16:25:59.176Z,100403.81
2023-01-19T16:28:28.186Z,100403.78
2023-01-19T16:30:57.567Z,100411.34
2023-01-19T16:33:25.357Z,100411.34
2023-01-19T16:35:53.870Z,100397.78
2023-01-19T16:38:23.208Z,100393.38
2023-01-19T16:40:50.958Z,100416.19
2023-01-19T16:43:18.850Z,100411.88
2023-01-19T16:46:02.671Z,100418.59
2023-01-19T16:48:32.347Z,100422.81
2023-01-19T16:51:01.927Z,100421.16
2023-01-19T16:53:30.380Z,100436.22
2023-01-19T16:55:58.297Z,100389.03
2023-01-19T16:58:26.293Z,100433.25
2023-01-19T17:00:54.102Z,100440.03
2023-01-19T17:03:23.645Z,100441.53
2023-01-19T17:05:52.812Z,100443.19
2023-01-19T17:08:21.871Z,100423.88
2023-01-19T17:10:49.803Z,100421.34
2023-01-19T17:13:17.682Z,100444.84
2023-01-19T17:15:45.457Z,100429.56
2023-01-19T17:18:13.407Z,100443.19
2023-01-19T17:20:42.675Z,100448.88
2023-01-19T17:23:10.428Z,100452.06
2023-01-19T17:25:38.359Z,100429.13
2023-01-19T17:28:06.231Z,100443.50
2023-01-19T17:30:34.406Z,100459.63
2023-01-19T17:33:02.470Z,100454.63
2023-01-19T17:35:30.280Z,100451.16
2023-01-19T17:37:59.527Z,100464.53
2023-01-19T17:40:27.506Z,100465.47
2023-01-19T17:42:55.277Z,100465.53
2023-01-19T17:45:23.205Z,100472.56
2023-01-19T17:47:51.512Z,100437.50
2023-01-19T17:50:19.473Z,100484.75
2023-01-19T17:52:47.671Z,100467.75
2023-01-19T17:55:18.490Z,100488.19
2023-01-19T17:57:46.530Z,100468.81
2023-01-19T18:00:15.750Z,100496.84
2023-01-19T18:02:43.642Z,100493.22
2023-01-19T18:05:12.671Z,100504.00
2023-01-19T18:07:40.733Z,100503.16
2023-01-19T18:10:10.359Z,100505.84
2023-01-19T18:12:39.661Z,100513.25
2023-01-19T18:15:09.780Z,100494.66
2023-01-19T18:17:37.636Z,100504.72
2023-01-19T18:20:06.068Z,100490.41
2023-01-19T18:22:33.936Z,100518.31
2023-01-19T18:25:01.786Z,100524.16
2023-01-19T18:27:30.323Z,100520.63
2023-01-19T18:29:59.743Z,100524.84
2023-01-19T18:32:27.613Z,100521.44
2023-01-19T18:34:55.344Z,100510.50
2023-01-19T18:37:23.215Z,100524.78
2023-01-19T18:39:51.103Z,100525.53
2023-01-19T18:42:18.897Z,100500.78
2023-01-19T18:44:46.723Z,100530.44
2023-01-19T18:47:15.932Z,100523.56
2023-01-19T18:49:43.668Z,100532.91
2023-01-19T18:52:11.553Z,100513.41
2023-01-19T18:54:39.443Z,100538.16
2023-01-19T18:57:07.185Z,100543.97
2023-01-19T18:59:35.147Z,100526.72
2023-01-19T19:02:05.279Z,100503.84
2023-01-19T19:04:34.499Z,100549.47
2023-01-19T19:07:02.409Z,100553.72
2023-01-19T19:09:30.465Z,100538.41
2023-01-19T19:11:58.305Z,100555.81
2023-01-19T19:14:26.597Z,100526.31
2023-01-19T19:16:54.513Z,100559.91
2023-01-19T19:19:22.257Z,100535.00
2023-01-19T19:21:52.154Z,100562.22
2023-01-19T19:24:19.945Z,100554.59
2023-01-19T19:26:47.687Z,100566.13
2023-01-19T19:29:15.671Z,100566.72
2023-01-19T19:31:43.748Z,100539.00
2023-01-19T19:34:12.445Z,100563.63
2023-01-19T19:36:42.029Z,100566.97
2023-01-19T19:39:11.535Z,100571.44
2023-01-19T19:41:39.305Z,100566.47
2023-01-19T19:44:26.108Z,100571.34
2023-01-19T19:46:54.006Z,100566.91
2023-01-19T19:49:21.919Z,100584.84
2023-01-19T19:51:49.835Z,100584.81
2023-01-19T19:54:18.964Z,100583.88
2023-01-19T19:56:48.345Z,100572.00
2023-01-19T19:59:16.245Z,100567.84
2023-01-19T20:01:45.249Z,100585.78
2023-01-19T20:04:14.741Z,100584.81
2023-01-19T20:06:44.988Z,100591.19
2023-01-19T20:09:14.191Z,100579.19
2023-01-19T20:11:44.576Z,100575.97
2023-01-19T20:14:13.485Z,100585.41
2023-01-19T20:16:41.470Z,100593.19
2023-01-19T20:19:09.583Z,100598.38
2023-01-19T20:21:40.135Z,100605.75
2023-01-19T20:24:10.082Z,100585.38
2023-01-19T20:26:42.313Z,100579.31
2023-01-19T20:29:11.939Z,100608.19
2023-01-19T20:31:42.715Z,100608.19
2023-01-19T20:34:12.422Z,100586.31
2023-01-19T20:36:41.199Z,100609.34
2023-01-19T20:39:11.100Z,100604.91
2023-01-19T20:41:45.089Z,100596.25
2023-01-19T20:44:16.351Z,100589.53
2023-01-19T20:46:44.232Z,100620.88
2023-01-19T20:49:12.180Z,100628.88
2023-01-19T20:51:43.328Z,100621.06
2023-01-19T20:54:11.482Z,100627.06
2023-01-19T20:56:41.424Z,100632.97
2023-01-19T20:59:09.547Z,100633.59
2023-01-19T21:01:39.670Z,100637.25
2023-01-19T21:04:07.810Z,100610.78
2023-01-19T21:06:35.592Z,100615.91
2023-01-19T21:09:03.637Z,100595.03
2023-01-19T21:11:31.856Z,100626.47
2023-01-19T21:13:59.828Z,100640.72
2023-01-19T21:16:30.101Z,100648.28
2023-01-19T21:18:59.627Z,100594.22
2023-01-19T21:21:31.155Z,100627.31
2023-01-19T21:24:01.435Z,100645.94
2023-01-19T21:26:30.945Z,100646.28
2023-01-19T21:28:59.286Z,100637.56
2023-01-19T21:31:28.255Z,100655.50
2023-01-19T21:33:56.682Z,100641.84
2023-01-19T21:36:26.715Z,100662.94
2023-01-19T21:38:55.801Z,100629.34
2023-01-19T21:41:23.672Z,100668.09
2023-01-19T21:43:51.413Z,100665.25
2023-01-19T21:46:21.166Z,100671.00
2023-01-19T21:48:49.445Z,100655.34
2023-01-19T21:51:17.556Z,100670.09
2023-01-19T21:53:47.236Z,100652.81
2023-01-19T21:56:16.811Z,100682.59
2023-01-19T21:58:48.410Z,100685.31
2023-01-19T22:01:16.210Z,100669.66
2023-01-19T22:03:44.495Z,100682.25
2023-01-19T22:06:14.302Z,100671.16
2023-01-19T22:08:42.396Z,100686.53
2023-01-19T22:11:13.452Z,100680.31
2023-01-19T22:13:42.054Z,100683.38
2023-01-19T22:16:12.344Z,100701.50
2023-01-19T22:18:41.913Z,100684.22
2023-01-19T22:21:11.053Z,100692.59
2023-01-19T22:23:39.545Z,100709.81
2023-01-19T22:26:08.226Z,100706.34
2023-01-19T22:28:38.179Z,100712.16
2023-01-19T22:31:08.170Z,100713.81
2023-01-19T22:33:36.287Z,100705.94
2023-01-19T22:36:12.100Z,100699.16
2023-01-19T22:38:40.438Z,100707.66
2023-01-19T22:41:15.951Z,100705.22
2023-01-19T22:43:45.923Z,100699.31
2023-01-19T22:46:14.338Z,100718.78
2023-01-19T22:48:42.327Z,100733.47
2023-01-19T22:51:10.262Z,100726.75
2023-01-19T22:53:38.065Z,100705.97
2023-01-19T22:56:13.810Z,100713.78
2023-01-19T22:58:44.204Z,100705.47
2023-01-19T23:01:13.991Z,100728.31
2023-01-19T23:03:42.429Z,100729.34
2023-01-19T23:06:12.254Z,100729.47
2023-01-19T23:08:40.881Z,100701.31
2023-01-19T23:11:11.581Z,100734.41
2023-01-19T23:13:39.733Z,100748.97
2023-01-19T23:16:08.730Z,100727.97
2023-01-19T23:18:38.168Z,100711.19
2023-01-19T23:21:07.750Z,100720.53
2023-01-19T23:23:36.260Z,100723.13
2023-01-19T23:26:05.747Z,100736.84
2023-01-19T23:28:34.512Z,100728.19
2023-01-19T23:31:02.445Z,100741.78
2023-01-19T23:33:30.215Z,100726.41
2023-01-19T23:35:59.321Z,100714.91
2023-01-19T23:38:27.049Z,100742.09
2023-01-19T23:40:58.086Z,100724.13
2023-01-19T23:43:25.860Z,100714.69
2023-01-19T23:45:53.744Z,100751.56
2023-01-19T23:48:21.776Z,100745.06
2023-01-19T23:50:49.503Z,100746.78
2023-01-19T23:53:18.627Z,100745.84
2023-01-19T23:55:46.697Z,100755.22
2023-01-19T23:58:14.420Z,100757.88
